Time;durP1;ratioP1;P1;durP2;ratioP2;P2;SDS_P1;SDS_P2;PMS_P1;PMS_P2;Temp;Humidity;BMP_temperature;BMP_pressure;BME280_temperature;BME280_humidity;BME280_pressure;Samples;Min_cycle;Max_cycle;Signal;HPM_P1;HPM_P2
2021/06/16 15:45:03;;;;;;;3.25;3.00;;;30.50;56.20;;;30.14;27.67;97567.41;5337231;27;21079;-63
2021/06/16 15:47:37;;;;;;;3.53;3.22;;;30.20;56.10;;;30.43;27.84;97567.53;5271132;28;20538;-61
2021/06/16 15:50:12;;;;;;;3.22;2.92;;;30.20;56.40;;;30.63;28.59;97569.63;5281591;28;20202;-63
2021/06/16 15:52:45;;;;;;;3.00;2.70;;;30.30;57.70;;;30.84;26.82;97569.94;5273741;28;20198;-61
2021/06/16 15:55:23;;;;;;;3.35;3.00;;;30.30;55.90;;;30.90;24.68;97564.47;5282999;28;20242;-61
2021/06/16 15:57:56;;;;;;;2.70;2.50;;;30.30;53.40;;;30.91;25.08;97566.22;5274403;28;20195;-62
2021/06/16 16:00:31;;;;;;;2.70;2.50;;;30.30;53.90;;;30.97;24.34;97564.25;5292099;28;20203;-62
2021/06/16 16:03:05;;;;;;;2.53;2.40;;;30.30;52.80;;;31.07;23.50;97569.28;5278784;28;20233;-62
2021/06/16 16:05:38;;;;;;;2.63;2.45;;;30.30;52.10;;;31.17;22.80;97566.31;5281161;28;20226;-61
2021/06/16 16:08:12;;;;;;;3.08;2.80;;;30.40;51.20;;;31.14;23.87;97562.91;5279596;28;20204;-61
2021/06/16 16:10:45;;;;;;;2.40;2.20;;;30.30;53.00;;;31.13;23.82;97563.78;5281122;28;20202;-61
2021/06/16 16:13:19;;;;;;;3.20;2.85;;;30.30;52.60;;;31.07;24.69;97554.28;5276637;28;20192;-62
2021/06/16 16:15:53;;;;;;;2.65;2.50;;;30.20;54.10;;;31.06;25.50;97546.44;5273790;28;20219;-61
2021/06/16 16:18:26;;;;;;;2.90;2.70;;;30.20;54.80;;;31.06;26.21;97551.72;5271130;28;20199;-59
2021/06/16 16:20:59;;;;;;;2.97;2.80;;;30.10;56.10;;;31.12;26.40;97547.09;5280655;28;20214;-59
2021/06/16 16:23:32;;;;;;;3.00;2.70;;;30.10;56.50;;;31.10;26.96;97553.34;5280763;28;20210;-61
2021/06/16 16:26:06;;;;;;;3.15;2.90;;;30.10;57.10;;;31.10;27.32;97553.34;5281615;28;20589;-61
2021/06/16 16:28:40;;;;;;;3.58;3.28;;;30.10;57.30;;;31.04;28.18;97549.09;5277926;28;20315;-62
2021/06/16 16:31:14;;;;;;;3.08;2.88;;;30.10;58.50;;;31.11;27.11;97555.94;5281321;28;20574;-60
2021/06/16 16:33:47;;;;;;;2.90;2.70;;;30.10;56.90;;;30.98;27.79;97555.41;5280145;28;20203;-59
2021/06/16 16:36:22;;;;;;;3.33;3.10;;;30.00;59.10;;;30.93;28.53;97552.09;5273935;28;20207;-61
2021/06/16 16:38:55;;;;;;;3.33;3.13;;;29.90;58.50;;;30.95;27.83;97544.09;5280069;28;20191;-60
2021/06/16 16:41:28;;;;;;;3.70;3.40;;;29.90;57.70;;;30.99;27.89;97540.44;5280761;28;20191;-60
2021/06/16 16:44:01;;;;;;;3.38;3.08;;;29.90;57.80;;;31.03;27.96;97546.53;5280055;28;20223;-60
2021/06/16 16:46:36;;;;;;;3.60;3.30;;;29.90;57.90;;;30.93;27.76;97541.53;5273461;28;20242;-60
2021/06/16 16:49:10;;;;;;;4.55;4.10;;;29.90;58.00;;;30.97;28.09;97543.16;5278638;28;20194;-60
2021/06/16 16:51:44;;;;;;;21.15;19.15;;;29.90;58.00;;;30.87;28.48;97533.75;5279416;28;20210;-61
2021/06/16 16:54:17;;;;;;;4.93;4.53;;;29.80;58.90;;;30.90;29.02;97535.44;5278086;28;20195;-61
2021/06/16 16:56:50;;;;;;;10.93;3.58;;;29.80;59.00;;;30.90;28.82;97536.31;5267062;28;20286;-60
2021/06/16 16:59:24;;;;;;;3.40;3.17;;;29.80;59.90;;;30.87;29.43;97535.53;5270371;28;20244;-60
2021/06/16 17:01:58;;;;;;;5.88;5.38;;;29.80;59.90;;;30.86;29.18;97536.44;5257866;28;20679;-61
2021/06/16 17:04:32;;;;;;;4.85;4.45;;;29.70;59.70;;;30.81;30.17;97526.03;5265092;28;20219;-61
2021/06/16 17:07:07;;;;;;;3.85;3.58;;;29.70;60.20;;;30.80;29.50;97524.31;5267466;28;20191;-60
2021/06/16 17:09:41;;;;;;;3.80;3.50;;;29.70;60.30;;;30.75;29.79;97527.03;5265523;28;20196;-61
2021/06/16 17:12:14;;;;;;;3.40;3.20;;;29.70;60.50;;;30.72;29.71;97521.84;5264353;28;20712;-61
2021/06/16 17:14:47;;;;;;;4.25;3.95;;;29.60;60.20;;;30.82;30.66;97527.78;5264580;28;20223;-60
2021/06/16 17:17:22;;;;;;;4.07;3.78;;;29.60;61.90;;;30.84;30.50;97530.34;5266754;28;20228;-60
2021/06/16 17:19:55;;;;;;;3.72;3.42;;;29.70;62.10;;;30.82;30.54;97532.16;5266181;28;20723;-58
2021/06/16 17:22:28;;;;;;;3.70;3.40;;;29.80;61.20;;;30.81;30.38;97528.66;5265021;28;20946;-61
2021/06/16 17:25:02;;;;;;;3.90;3.60;;;29.80;61.60;;;30.65;30.43;97522.09;5267066;28;20411;-60
2021/06/16 17:27:35;;;;;;;4.40;4.00;;;29.70;61.40;;;30.56;31.15;97524.97;5265282;28;20633;-61
2021/06/16 17:30:13;;;;;;;4.00;3.53;;;29.60;62.40;;;30.72;30.24;97521.84;5269973;28;20230;-61
2021/06/16 17:32:48;;;;;;;3.70;3.40;;;29.70;61.40;;;30.37;31.67;97527.28;5266405;28;20260;-61
2021/06/16 17:35:21;;;;;;;3.58;3.28;;;29.50;62.80;;;30.30;31.58;97516.00;5264113;28;20217;-61
2021/06/16 17:37:55;;;;;;;3.92;3.58;;;29.40;62.90;;;30.30;32.03;97523.91;5268021;28;20200;-59
2021/06/16 17:40:28;;;;;;;4.72;3.70;;;29.30;63.30;;;30.24;32.01;97518.81;5267440;28;20199;-60
2021/06/16 17:43:01;;;;;;;4.65;3.80;;;29.20;64.00;;;30.13;31.76;97520.84;5267355;28;20234;-61
2021/06/16 17:45:35;;;;;;;4.28;3.88;;;29.10;64.10;;;30.15;32.32;97521.66;5265521;28;20215;-60
2021/06/16 17:48:10;;;;;;;3.63;3.40;;;29.10;64.20;;;29.94;33.35;97531.00;5264454;28;20207;-61
2021/06/16 17:50:45;;;;;;;3.53;3.30;;;28.90;65.60;;;29.86;33.21;97531.19;5268076;28;20198;-62
2021/06/16 17:53:19;;;;;;;4.13;3.80;;;28.80;66.30;;;29.66;34.61;97525.56;5270198;28;20198;-60
2021/06/16 17:55:52;;;;;;;3.95;3.72;;;28.60;69.00;;;29.50;35.65;97535.56;5266803;28;20711;-61
2021/06/16 17:58:25;;;;;;;4.13;3.80;;;28.50;69.20;;;29.55;35.18;97539.81;5261840;28;20191;-60
2021/06/16 18:00:58;;;;;;;5.45;3.97;;;28.50;69.40;;;29.33;37.11;97539.47;5267616;28;20202;-63
2021/06/16 18:03:34;;;;;;;3.63;3.33;;;28.30;74.10;;;29.16;38.36;97542.50;5266538;28;20273;-63
2021/06/16 18:06:07;;;;;;;4.15;3.80;;;28.10;74.10;;;29.10;39.10;97540.00;5256935;28;20219;-63
2021/06/16 18:08:41;;;;;;;3.85;3.55;;;28.00;75.40;;;28.95;39.72;97535.03;5262497;28;20273;-63
2021/06/16 18:11:14;;;;;;;4.57;4.18;;;27.90;75.40;;;28.90;39.72;97529.88;5260368;28;20244;-61
2021/06/16 18:13:47;;;;;;;4.13;3.78;;;27.80;76.40;;;28.81;39.16;97532.69;5261856;28;20212;-61
2021/06/16 18:16:20;;;;;;;4.10;3.80;;;27.70;76.30;;;28.73;39.53;97535.50;5264457;28;20686;-61
2021/06/16 18:18:55;;;;;;;4.18;3.78;;;27.60;75.10;;;28.68;39.90;97529.44;5263346;28;20205;-61
2021/06/16 18:21:28;;;;;;;4.60;4.05;;;27.50;76.30;;;28.55;40.76;97533.22;5262662;28;20586;-61
2021/06/16 18:24:01;;;;;;;4.35;4.00;;;27.40;78.00;;;28.49;41.62;97533.34;5261545;28;20192;-60
2021/06/16 18:26:34;;;;;;;4.18;3.67;;;27.30;79.40;;;28.36;41.77;97537.06;5263387;28;20619;-59
2021/06/16 18:29:07;;;;;;;4.47;4.13;;;27.30;80.00;;;28.25;42.79;97543.41;5263512;28;20206;-61
2021/06/16 18:31:40;;;;;;;4.60;4.20;;;27.20;81.20;;;28.14;43.54;97547.13;5264595;28;20192;-61
2021/06/16 18:34:15;;;;;;;4.78;4.32;;;27.00;82.70;;;27.93;44.35;97543.09;5263809;28;20199;-61
2021/06/16 18:36:48;;;;;;;4.80;4.32;;;26.80;84.00;;;27.89;44.88;97554.56;5262788;28;20217;-61
2021/06/16 18:39:21;;;;;;;4.55;4.25;;;26.70;83.80;;;27.88;44.81;97550.22;5262209;28;20549;-61
2021/06/16 18:41:59;;;;;;;4.38;4.07;;;26.70;84.50;;;27.82;45.01;97551.19;5264307;28;20209;-60
2021/06/16 18:44:33;;;;;;;4.93;4.50;;;26.60;85.20;;;27.60;45.27;97555.88;5255830;28;20225;-61
2021/06/16 18:47:07;;;;;;;4.72;4.38;;;26.50;86.40;;;27.44;46.73;97555.22;5264224;28;20237;-60
2021/06/16 18:49:41;;;;;;;4.90;4.40;;;26.30;88.40;;;27.28;47.34;97565.09;5264766;28;20199;-59
2021/06/16 18:52:15;;;;;;;5.28;4.72;;;26.10;89.10;;;27.18;48.17;97556.50;5265079;28;20689;-61
2021/06/16 18:54:48;;;;;;;4.82;4.35;;;26.00;89.90;;;27.10;48.07;97566.22;5263617;28;20215;-61
2021/06/16 18:57:21;;;;;;;4.15;3.90;;;25.90;89.60;;;26.96;47.53;97565.53;5263608;28;20202;-61
2021/06/16 18:59:54;;;;;;;4.68;4.32;;;25.80;89.30;;;26.82;48.46;97565.69;5263893;28;20211;-61
2021/06/16 19:02:28;;;;;;;4.93;4.53;;;25.60;90.70;;;26.72;49.28;97564.91;5262991;28;20210;-61
2021/06/16 19:05:10;;;;;;;4.40;4.10;;;25.50;91.40;;;26.60;49.38;97570.31;5263847;28;20225;-61
2021/06/16 19:07:44;;;;;;;4.35;4.05;;;25.30;91.50;;;26.46;49.67;97567.81;5264366;28;20573;-61
2021/06/16 19:10:21;;;;;;;4.90;4.50;;;25.30;91.40;;;26.35;49.91;97568.81;5261887;28;20272;-61
2021/06/16 19:12:54;;;;;;;4.45;4.03;;;25.10;92.00;;;26.25;50.05;97573.28;5263884;28;20199;-61
2021/06/16 19:15:30;;;;;;;4.45;4.10;;;25.00;92.30;;;26.14;50.42;97570.75;5264837;28;20211;-61
2021/06/16 19:18:03;;;;;;;4.80;4.22;;;24.90;91.90;;;26.03;50.79;97568.22;5265085;28;20187;-60
2021/06/16 19:20:38;;;;;;;4.97;4.47;;;24.80;92.60;;;25.91;50.47;97568.34;5264064;28;20716;-60
2021/06/16 19:23:12;;;;;;;5.00;4.63;;;24.70;91.70;;;25.89;50.21;97567.50;5264208;28;20195;-60
2021/06/16 19:25:46;;;;;;;5.20;4.55;;;24.70;91.70;;;25.68;50.88;97575.50;5264777;28;20449;-61
2021/06/16 19:28:19;;;;;;;5.32;4.57;;;24.60;92.20;;;25.50;51.90;97569.53;5263984;28;20572;-60
2021/06/16 19:30:52;;;;;;;4.55;4.25;;;24.40;93.20;;;25.39;51.79;97579.19;5262348;28;20203;-60
2021/06/16 19:33:25;;;;;;;4.88;4.45;;;24.30;92.60;;;25.37;52.33;97580.94;5261164;28;20199;-61
2021/06/16 19:36:00;;;;;;;4.80;4.40;;;24.30;93.20;;;25.34;53.31;97588.81;5263524;28;20556;-59
2021/06/16 19:38:33;;;;;;;4.70;4.30;;;24.20;94.10;;;25.27;53.92;97587.13;5264791;28;20289;-60
2021/06/16 19:41:07;;;;;;;5.10;4.70;;;24.10;94.90;;;25.21;53.94;97594.97;5264300;28;20200;-60
2021/06/16 19:43:40;;;;;;;4.82;4.50;;;24.10;94.50;;;25.11;54.51;97592.38;5259775;28;20547;-61
2021/06/16 19:46:13;;;;;;;5.07;4.68;;;24.00;95.70;;;25.04;55.02;97603.78;5264615;28;20220;-60
2021/06/16 19:48:46;;;;;;;5.05;4.70;;;23.90;95.30;;;24.93;54.96;97605.56;5260244;28;20202;-60
2021/06/16 19:51:20;;;;;;;5.22;4.93;;;23.80;95.60;;;24.82;55.44;97608.22;5262832;28;20206;-60
2021/06/16 19:53:54;;;;;;;5.10;4.53;;;23.70;96.80;;;24.63;55.00;97599.56;5269739;28;20198;-60
2021/06/16 19:56:29;;;;;;;5.18;4.78;;;23.50;95.50;;;24.58;55.48;97606.56;5265231;28;20615;-61
2021/06/16 19:59:02;;;;;;;5.07;4.63;;;23.40;96.30;;;24.53;55.87;97613.53;5263618;28;20214;-60
2021/06/16 20:01:35;;;;;;;5.55;5.03;;;23.40;96.80;;;24.46;55.54;97606.56;5262843;28;20200;-60
2021/06/16 20:04:09;;;;;;;5.07;4.68;;;23.30;96.00;;;24.38;55.65;97610.91;5262889;28;20195;-60
2021/06/16 20:06:43;;;;;;;5.07;4.68;;;23.20;96.50;;;24.23;55.97;97614.41;5262581;28;20212;-60
2021/06/16 20:09:16;;;;;;;5.82;5.18;;;23.10;95.90;;;24.17;55.62;97611.81;5260382;28;20600;-61
2021/06/16 20:11:50;;;;;;;5.13;4.72;;;23.00;96.20;;;24.13;57.04;97621.41;5263738;28;20206;-60
2021/06/16 20:14:28;;;;;;;5.15;4.80;;;23.00;97.70;;;24.08;57.17;97625.75;5262340;28;20192;-60
2021/06/16 20:17:03;;;;;;;4.63;4.25;;;22.90;97.50;;;24.02;57.06;97638.81;5266258;28;20195;-60
2021/06/16 20:19:37;;;;;;;4.95;4.55;;;22.80;97.50;;;23.92;58.06;97637.94;5263866;28;20188;-60
2021/06/16 20:22:11;;;;;;;5.28;4.78;;;22.70;97.80;;;23.85;57.95;97630.09;5263336;28;20230;-61
2021/06/16 20:24:45;;;;;;;5.07;4.57;;;22.60;98.00;;;23.67;59.29;97631.78;5261632;28;20298;-61
2021/06/16 20:27:18;;;;;;;5.00;4.70;;;22.50;98.80;;;23.62;58.54;97638.72;5261177;28;20212;-60
2021/06/16 20:29:51;;;;;;;5.10;4.70;;;22.40;98.50;;;23.56;58.66;97623.06;5263809;28;20192;-60
2021/06/16 20:32:24;;;;;;;4.78;4.47;;;22.40;98.60;;;23.53;58.47;97629.16;5267688;28;20192;-60
2021/06/16 20:34:57;;;;;;;5.75;5.15;;;22.40;98.40;;;23.44;58.29;97633.50;5266916;28;20215;-60
2021/06/16 20:37:33;;;;;;;5.15;4.60;;;22.30;98.50;;;23.42;58.08;97628.25;5269614;28;20573;-58
2021/06/16 20:40:08;;;;;;;5.57;5.15;;;22.20;98.10;;;23.26;58.52;97642.97;5270004;28;20617;-59
2021/06/16 20:42:41;;;;;;;5.72;5.18;;;22.10;98.70;;;23.20;59.43;97640.34;5268768;28;20283;-60
2021/06/16 20:45:16;;;;;;;5.10;4.80;;;22.10;99.00;;;23.12;59.08;97642.94;5269832;28;20261;-60
2021/06/16 20:47:49;;;;;;;5.82;5.05;;;22.00;98.20;;;23.03;58.42;97639.41;5269239;28;20286;-60
2021/06/16 20:50:22;;;;;;;5.65;5.13;;;22.00;98.10;;;22.99;59.57;97637.69;5269923;28;20716;-60
2021/06/16 20:52:57;;;;;;;5.47;4.97;;;22.00;98.70;;;22.92;58.25;97644.53;5267744;28;20196;-60
2021/06/16 20:55:30;;;;;;;5.40;5.00;;;21.90;97.80;;;22.90;58.53;97641.94;5269781;28;20213;-61
2021/06/16 20:58:03;;;;;;;5.18;4.88;;;21.80;98.30;;;22.88;59.38;97642.81;5268863;28;20188;-60
2021/06/16 21:00:37;;;;;;;5.00;4.60;;;21.90;98.80;;;22.89;59.73;97645.44;5269712;28;20218;-60
2021/06/16 21:03:10;;;;;;;5.55;5.15;;;21.80;99.20;;;22.82;59.28;97643.66;5268803;28;20579;-60
2021/06/16 21:05:43;;;;;;;5.25;4.75;;;21.80;99.10;;;22.76;59.59;97650.56;5269944;28;20377;-60
2021/06/16 21:08:18;;;;;;;5.43;5.03;;;21.70;99.30;;;22.70;60.29;97654.88;5269039;28;20204;-60
2021/06/16 21:10:51;;;;;;;6.00;5.50;;;21.70;99.30;;;22.68;60.64;97655.72;5269417;28;20278;-61
2021/06/16 21:13:25;;;;;;;5.25;4.82;;;21.60;99.50;;;22.64;61.57;97659.19;5267476;28;20212;-60
2021/06/16 21:15:58;;;;;;;5.63;5.22;;;21.60;99.90;;;22.59;61.84;97663.50;5263756;28;20223;-61
2021/06/16 21:18:31;;;;;;;5.35;4.95;;;21.60;99.90;;;22.57;60.97;97662.59;5269622;28;20214;-60
2021/06/16 21:21:05;;;;;;;5.70;5.30;;;21.50;99.90;;;22.47;61.43;97659.09;5268534;28;20701;-60
2021/06/16 21:23:40;;;;;;;5.88;5.38;;;21.40;99.90;;;22.43;61.23;97662.50;5268889;28;20212;-60
2021/06/16 21:26:13;;;;;;;5.35;5.00;;;21.30;99.90;;;22.35;61.65;97657.25;5267844;28;20227;-61
2021/06/16 21:28:46;;;;;;;5.57;5.18;;;21.30;99.90;;;22.30;61.72;97669.38;5268890;28;20195;-60
2021/06/16 21:31:20;;;;;;;6.20;5.60;;;21.20;99.90;;;22.06;61.90;97670.00;5267260;28;20204;-61
2021/06/16 21:33:53;;;;;;;5.90;5.40;;;21.00;99.90;;;22.00;61.92;97676.03;5268575;28;20195;-61
2021/06/16 21:36:27;;;;;;;5.60;5.20;;;21.00;99.90;;;21.95;61.77;97672.53;5267948;28;20216;-61
2021/06/16 21:39:02;;;;;;;5.90;5.40;;;20.90;99.90;;;21.86;62.01;97676.75;5269452;28;20199;-60
2021/06/16 21:41:35;;;;;;;5.93;5.43;;;20.80;99.90;;;21.79;62.29;97666.28;5267947;28;20203;-59
2021/06/16 21:44:08;;;;;;;7.15;5.65;;;20.80;99.90;;;21.87;63.06;97673.31;5265275;28;20219;-60
2021/06/16 21:46:42;;;;;;;6.68;6.00;;;20.80;99.90;;;21.85;63.90;97669.81;5260376;28;20216;-60
2021/06/16 21:49:15;;;;;;;6.07;5.60;;;20.90;99.90;;;21.82;63.31;97676.72;5265549;28;20196;-60
2021/06/16 21:51:48;;;;;;;5.78;5.28;;;20.80;99.90;;;21.78;63.34;97677.56;5268385;28;20669;-60
2021/06/16 21:54:24;;;;;;;6.45;5.90;;;20.70;99.90;;;21.81;64.09;97680.22;5268096;28;20206;-60
2021/06/16 21:56:59;;;;;;;5.97;5.47;;;20.80;99.90;;;21.80;63.63;97677.56;5267887;28;20195;-60
2021/06/16 21:59:32;;;;;;;6.05;5.50;;;20.80;99.90;;;21.68;63.82;97672.25;5268602;28;20270;-60
2021/06/16 22:02:06;;;;;;;6.05;5.40;;;20.70;99.90;;;21.67;63.68;97676.59;5267956;28;20192;-60
2021/06/16 22:04:39;;;;;;;5.90;5.40;;;20.60;99.90;;;21.63;64.47;97692.13;5266955;28;20241;-60
2021/06/16 22:07:12;;;;;;;6.15;5.65;;;20.60;99.90;;;21.60;63.71;97687.78;5266017;28;20216;-60
2021/06/16 22:09:47;;;;;;;6.28;5.72;;;20.60;99.90;;;21.49;65.06;97685.09;5267803;28;20196;-60
2021/06/16 22:12:20;;;;;;;6.60;6.10;;;20.50;99.90;;;21.41;64.95;97684.13;5267052;28;20570;-61
2021/06/16 22:14:53;;;;;;;6.35;5.95;;;20.40;99.90;;;21.41;64.45;97689.31;5267944;28;20714;-60
2021/06/16 22:17:26;;;;;;;6.10;5.60;;;20.30;99.90;;;21.36;64.70;97689.25;5265633;28;20196;-60
2021/06/16 22:20:00;;;;;;;6.00;5.50;;;20.30;99.90;;;21.28;64.48;97684.78;5266682;28;20192;-60
2021/06/16 22:22:33;;;;;;;5.70;5.25;;;20.20;99.90;;;21.25;65.09;97692.56;5267382;28;20227;-60
2021/06/16 22:25:10;;;;;;;5.78;5.38;;;20.20;99.90;;;21.20;65.05;97686.41;5264417;28;20213;-60
2021/06/16 22:27:49;;;;;;;7.18;6.32;;;20.10;99.90;;;21.13;65.57;97688.09;5267431;28;20265;-60
2021/06/16 22:30:30;;;;;;;6.60;6.03;;;20.10;99.90;;;21.12;65.50;97682.00;5262560;28;20196;-60
2021/06/16 22:33:04;;;;;;;5.72;5.43;;;20.00;99.90;;;21.12;65.71;97681.16;5267151;28;20221;-60
2021/06/16 22:35:37;;;;;;;7.25;6.47;;;20.00;99.90;;;21.02;65.97;97685.34;5266987;28;20213;-60
2021/06/16 22:38:10;;;;;;;6.97;6.38;;;20.00;99.90;;;20.86;66.60;97681.69;5268046;28;20196;-60
2021/06/16 22:40:47;;;;;;;6.43;5.82;;;19.80;99.90;;;20.84;66.31;97674.72;5266447;28;20198;-60
2021/06/16 22:43:20;;;;;;;7.63;6.50;;;19.80;99.90;;;20.77;66.28;97670.28;5264272;28;20581;-60
2021/06/16 22:45:53;;;;;;;6.53;6.00;;;19.80;99.90;;;20.74;66.91;97675.44;5266136;28;20216;-60
2021/06/16 22:48:26;;;;;;;7.00;6.40;;;19.80;99.90;;;20.72;68.04;97669.31;5267194;28;20226;-60
2021/06/16 22:51:00;;;;;;;6.88;6.28;;;19.90;99.90;;;20.70;66.24;97671.91;5267517;28;20566;-60
2021/06/16 22:53:33;;;;;;;6.60;6.10;;;19.80;99.90;;;20.62;65.89;97673.53;5266432;28;20191;-60
2021/06/16 22:56:07;;;;;;;7.00;6.38;;;19.70;99.90;;;20.60;66.24;97670.94;5264284;28;20584;-60
2021/06/16 22:58:41;;;;;;;7.18;6.53;;;19.70;99.90;;;20.53;66.68;97679.47;5267557;28;20188;-60
2021/06/16 23:01:14;;;;;;;6.93;6.25;;;19.60;99.90;;;20.52;68.07;97669.91;5265793;28;20659;-60
2021/06/16 23:03:47;;;;;;;6.93;6.32;;;19.60;99.90;;;20.52;67.90;97680.28;5262956;28;20716;-60
2021/06/16 23:06:20;;;;;;;6.95;6.43;;;19.70;99.90;;;20.53;67.25;97679.47;5266494;28;20587;-60
2021/06/16 23:08:53;;;;;;;6.38;5.88;;;19.60;99.90;;;20.50;67.09;97681.13;5264070;28;20199;-60
2021/06/16 23:11:29;;;;;;;7.15;6.55;;;19.50;99.90;;;20.45;67.30;97686.22;5267664;28;20195;-60
2021/06/16 23:14:02;;;;;;;6.97;6.45;;;19.50;99.90;;;20.44;67.70;97667.19;5263620;28;20194;-60
2021/06/16 23:16:35;;;;;;;6.22;5.82;;;19.50;99.90;;;20.46;67.03;97675.00;5267192;28;20212;-60
2021/06/16 23:19:08;;;;;;;6.50;6.00;;;19.50;99.90;;;20.40;66.92;97678.38;5265215;28;20231;-60
2021/06/16 23:21:41;;;;;;;6.63;6.03;;;19.40;99.90;;;20.34;66.99;97672.22;5266990;28;20211;-60
2021/06/16 23:24:14;;;;;;;6.82;6.25;;;19.40;99.90;;;20.28;67.24;97672.13;5266189;28;20536;-60
2021/06/16 23:26:49;;;;;;;6.80;6.20;;;19.20;99.90;;;20.18;67.37;97666.78;5266643;28;20518;-60
2021/06/16 23:29:22;;;;;;;7.25;6.65;;;19.20;99.90;;;20.11;67.36;97670.13;5266279;28;20191;-60
2021/06/16 23:31:56;;;;;;;6.82;6.25;;;19.10;99.90;;;20.05;68.12;97670.03;5265321;28;20896;-60
2021/06/16 23:34:31;;;;;;;7.63;6.82;;;19.10;99.90;;;19.95;68.23;97662.94;5264814;28;20188;-60
2021/06/16 23:37:04;;;;;;;7.30;6.70;;;19.10;99.90;;;19.73;67.58;97659.97;5266651;28;20190;-60
2021/06/16 23:39:38;;;;;;;6.85;6.15;;;18.80;99.90;;;19.70;67.55;97657.31;5266079;28;20192;-60
2021/06/16 23:42:13;;;;;;;7.63;7.00;;;18.80;99.90;;;19.67;67.41;97667.66;5266615;28;20346;-60
2021/06/16 23:44:46;;;;;;;7.50;6.90;;;18.80;99.90;;;19.65;67.75;97674.50;5265354;28;20221;-60
2021/06/16 23:47:19;;;;;;;6.95;6.43;;;18.80;99.90;;;19.73;68.59;97672.94;5266911;28;20216;-60
2021/06/16 23:49:52;;;;;;;7.10;6.50;;;18.80;99.90;;;19.71;68.38;97669.44;5266353;28;20283;-60
2021/06/16 23:52:26;;;;;;;7.63;7.07;;;18.80;99.90;;;19.68;68.98;97666.78;5266416;28;20202;-60
2021/06/16 23:54:59;;;;;;;7.60;7.00;;;18.80;99.90;;;19.67;69.13;97669.38;5263494;28;20721;-60
2021/06/16 23:57:34;;;;;;;7.03;6.53;;;18.80;99.90;;;19.67;69.42;97662.47;5266669;28;20674;-60
